Back to Top

Language: 

My Weather Underground Personal Weather Station Historical Data with Graphs...

Delerius Weather Station Historical Data
Daily Summary for March 16, 2017 Units:  Metric    English   Both
« Previous Day
Next Day »
Daily Weekly Monthly Yearly Custom
  High: Low: Average:
Temperature: 12.9 °C 4.3 °C 9.2 °C
Dew Point: 7.8 °C 2 °C 5.8 °C
Humidity: 92 % 68 % 80 %
Wind Speed: 25.7 km/h 0 km/h 10.3 km/h
Wind Gust: 46.7 km/h - -
Wind:- - West
Pressure: 1025.6 hPa 1015.1 hPa -
Precipitation: 0 mm    
Historical Graphs
 
 
Tabular Data for March 16, 2017
Time Temperature Dew Point Pressure Wind Wind Speed Wind Gust Humidity Rainfall Rate (Hourly) solar Conditions
00:04 9.5 °C 6.4 °C 1025.6 hPa South 1.6 km/h 9.7 km/h 81 % 0 mm 0 W/m2
00:09 9.5 °C 6.6 °C 1025.6 hPa SSW 1.6 km/h 9.7 km/h 82 % 0 mm 0 W/m2
00:14 9.3 °C 6.4 °C 1025.6 hPa SSW 1.6 km/h 11.3 km/h 82 % 0 mm 0 W/m2
00:19 9.3 °C 6.6 °C 1025.6 hPa SW 4.8 km/h 14.5 km/h 83 % 0 mm 0 W/m2
00:24 9.5 °C 6.8 °C 1025.3 hPa SW 8 km/h 17.7 km/h 83 % 0 mm 0 W/m2
00:29 9.8 °C 6.9 °C 1025.3 hPa WSW 9.7 km/h 19.3 km/h 82 % 0 mm 0 W/m2
00:34 10.1 °C 7 °C 1025.3 hPa WSW 11.3 km/h 19.3 km/h 81 % 0 mm 0 W/m2
00:39 10.2 °C 7.1 °C 1025.3 hPa WSW 9.7 km/h 17.7 km/h 81 % 0 mm 0 W/m2
00:44 10.2 °C 6.9 °C 1025.3 hPa WSW 8 km/h 14.5 km/h 80 % 0 mm 0 W/m2
00:49 10.1 °C 6.8 °C 1025.3 hPa WSW 6.4 km/h 12.9 km/h 80 % 0 mm 0 W/m2
00:54 9.9 °C 6.6 °C 1024.9 hPa WSW 6.4 km/h 12.9 km/h 80 % 0 mm 0 W/m2
00:59 9.8 °C 6.7 °C 1024.9 hPa WSW 4.8 km/h 12.9 km/h 81 % 0 mm 0 W/m2
01:04 9.7 °C 6.6 °C 1024.9 hPa WSW 3.2 km/h 12.9 km/h 81 % 0 mm 0 W/m2
01:09 9.6 °C 6.5 °C 1024.9 hPa WSW 1.6 km/h 8 km/h 81 % 0 mm 0 W/m2
01:14 9.3 °C 6.2 °C 1024.9 hPa West 3.2 km/h 9.7 km/h 81 % 0 mm 0 W/m2
01:19 9.2 °C 6.3 °C 1024.9 hPa West 4.8 km/h 9.7 km/h 82 % 0 mm 0 W/m2
01:24 9.1 °C 6.2 °C 1024.6 hPa West 1.6 km/h 8 km/h 82 % 0 mm 0 W/m2
01:29 8.9 °C 6 °C 1024.6 hPa Calm   6.4 km/h 82 % 0 mm 0 W/m2
01:34 8.8 °C 5.9 °C 1024.6 hPa Calm   6.4 km/h 82 % 0 mm 0 W/m2
01:39 8.8 °C 6.1 °C 1024.6 hPa Calm   8 km/h 83 % 0 mm 0 W/m2
01:44 8.8 °C 6.1 °C 1024.6 hPa Calm   8 km/h 83 % 0 mm 0 W/m2
01:49 8.7 °C 6 °C 1024.6 hPa Calm   3.2 km/h 83 % 0 mm 0 W/m2
01:54 8.7 °C 6 °C 1024.3 hPa Calm   3.2 km/h 83 % 0 mm 0 W/m2
01:59 8.7 °C 6 °C 1024.3 hPa West 1.6 km/h 8 km/h 83 % 0 mm 0 W/m2
02:04 8.8 °C 6.1 °C 1024.3 hPa West 1.6 km/h 8 km/h 83 % 0 mm 0 W/m2
02:09 8.8 °C 6.1 °C 1024.3 hPa Calm   3.2 km/h 83 % 0 mm 0 W/m2
02:14 8.8 °C 6.1 °C 1023.9 hPa Calm   3.2 km/h 83 % 0 mm 0 W/m2
02:19 8.8 °C 6.1 °C 1023.9 hPa West 1.6 km/h 6.4 km/h 83 % 0 mm 0 W/m2
02:24 8.8 °C 6.1 °C 1023.9 hPa West 1.6 km/h 6.4 km/h 83 % 0 mm 0 W/m2
02:29 8.8 °C 6.1 °C 1023.9 hPa West 3.2 km/h 9.7 km/h 83 % 0 mm 0 W/m2
02:34 8.9 °C 6.2 °C 1023.6 hPa WNW 6.4 km/h 9.7 km/h 83 % 0 mm 0 W/m2
02:39 9.1 °C 6.4 °C 1023.6 hPa NW 4.8 km/h 9.7 km/h 83 % 0 mm 0 W/m2
02:44 9.1 °C 6.2 °C 1023.6 hPa NW 4.8 km/h 9.7 km/h 82 % 0 mm 0 W/m2
02:49 9.1 °C 6 °C 1023.6 hPa NW 4.8 km/h 11.3 km/h 81 % 0 mm 0 W/m2
02:54 8.9 °C 5.8 °C 1023.6 hPa WNW 3.2 km/h 11.3 km/h 81 % 0 mm 0 W/m2
02:59 8.9 °C 5.8 °C 1023.2 hPa WNW 1.6 km/h 9.7 km/h 81 % 0 mm 0 W/m2
03:04 8.7 °C 5.8 °C 1023.2 hPa Calm   3.2 km/h 82 % 0 mm 0 W/m2
03:09 8.6 °C 5.7 °C 1023.2 hPa Calm   3.2 km/h 82 % 0 mm 0 W/m2
03:14 8.4 °C 5.5 °C 1023.2 hPa Calm   1.6 km/h 82 % 0 mm 0 W/m2
03:19 8.2 °C 5.5 °C 1023.2 hPa Calm   3.2 km/h 83 % 0 mm 0 W/m2
03:24 8.1 °C 5.4 °C 1023.2 hPa Calm   3.2 km/h 83 % 0 mm 0 W/m2
03:30 7.9 °C 5.6 °C 1023.2 hPa WNW 1.6 km/h 8 km/h 85 % 0 mm 0 W/m2
03:35 8 °C 5.6 °C 1022.9 hPa WNW 3.2 km/h 8 km/h 85 % 0 mm 0 W/m2
03:40 8 °C 5.6 °C 1022.9 hPa WNW 1.6 km/h 8 km/h 85 % 0 mm 0 W/m2
03:45 7.9 °C 5.6 °C 1022.9 hPa WNW 1.6 km/h 6.4 km/h 85 % 0 mm 0 W/m2
03:50 7.9 °C 5.6 °C 1022.9 hPa WNW 1.6 km/h 6.4 km/h 85 % 0 mm 0 W/m2
03:55 7.8 °C 5.4 °C 1022.9 hPa WNW 1.6 km/h 6.4 km/h 85 % 0 mm 0 W/m2
04:00 7.7 °C 5.5 °C 1022.6 hPa Calm   4.8 km/h 86 % 0 mm 0 W/m2
04:05 7.6 °C 5.2 °C 1022.6 hPa Calm   3.2 km/h 85 % 0 mm 0 W/m2
04:10 7.5 °C 5.3 °C 1022.6 hPa Calm   4.8 km/h 86 % 0 mm 0 W/m2
04:15 7.5 °C 5.3 °C 1022.6 hPa Calm   4.8 km/h 86 % 0 mm 0 W/m2
04:20 7.4 °C 5.2 °C 1022.2 hPa Calm   1.6 km/h 86 % 0 mm 0 W/m2
04:25 7.3 °C 5.3 °C 1022.2 hPa Calm   1.6 km/h 87 % 0 mm 0 W/m2
04:30 7.3 °C 5.3 °C 1022.2 hPa Calm   6.4 km/h 87 % 0 mm 0 W/m2
04:35 7.3 °C 5.3 °C 1022.2 hPa NW 3.2 km/h 8 km/h 87 % 0 mm 0 W/m2
04:40 7.4 °C 5.4 °C 1022.2 hPa NW 4.8 km/h 8 km/h 87 % 0 mm 0 W/m2
04:45 7.4 °C 5.4 °C 1022.2 hPa NW 4.8 km/h 8 km/h 87 % 0 mm 0 W/m2
04:50 7.4 °C 5.4 °C 1022.2 hPa NW 3.2 km/h 8 km/h 87 % 0 mm 0 W/m2
04:55 7.3 °C 5.3 °C 1022.2 hPa NW 1.6 km/h 6.4 km/h 87 % 0 mm 0 W/m2
05:00 7.3 °C 5.3 °C 1022.2 hPa Calm   4.8 km/h 87 % 0 mm 0 W/m2
05:05 7.2 °C 5.2 °C 1022.2 hPa Calm   4.8 km/h 87 % 0 mm 0 W/m2
05:10 7.1 °C 5.2 °C 1022.2 hPa Calm   4.8 km/h 88 % 0 mm 0 W/m2
05:15 6.9 °C 4.9 °C 1021.9 hPa Calm   4.8 km/h 87 % 0 mm 0 W/m2
05:20 6.7 °C 4.7 °C 1021.9 hPa Calm   1.6 km/h 87 % 0 mm 0 W/m2
05:25 6.6 °C 4.6 °C 1021.9 hPa Calm   1.6 km/h 87 % 0 mm 0 W/m2
05:30 6.4 °C 4.6 °C 1021.9 hPa Calm   1.6 km/h 88 % 0 mm 0 W/m2
05:35 6.3 °C 4.4 °C 1021.6 hPa Calm   1.6 km/h 88 % 0 mm 0 W/m2
05:40 6.2 °C 4.5 °C 1021.6 hPa Calm     89 % 0 mm 0 W/m2
05:45 6.1 °C 4.4 °C 1021.6 hPa Calm     89 % 0 mm 0 W/m2
05:50 5.9 °C 4.2 °C 1021.6 hPa Calm   4.8 km/h 89 % 0 mm 0 W/m2
05:55 5.8 °C 4.3 °C 1021.6 hPa Calm   4.8 km/h 90 % 0 mm 0 W/m2
06:00 5.8 °C 4.3 °C 1021.6 hPa Calm   3.2 km/h 90 % 0 mm 0 W/m2
06:05 5.8 °C 4.3 °C 1021.2 hPa Calm   3.2 km/h 90 % 0 mm 0 W/m2
06:10 5.7 °C 4.2 °C 1021.2 hPa Calm     90 % 0 mm 0 W/m2
06:15 5.6 °C 4.1 °C 1021.2 hPa Calm     90 % 0 mm 0 W/m2
06:20 5.6 °C 4.2 °C 1020.9 hPa NW 1.6 km/h 3.2 km/h 91 % 0 mm 5 W/m2
06:25 5.7 °C 4.5 °C 1020.9 hPa NW 1.6 km/h 8 km/h 92 % 0 mm 7 W/m2
06:30 5.7 °C 4.5 °C 1021.2 hPa NW 3.2 km/h 8 km/h 92 % 0 mm 9 W/m2
06:35 5.7 °C 4.3 °C 1021.2 hPa NW 1.6 km/h 8 km/h 91 % 0 mm 11 W/m2
06:40 5.7 °C 4.3 °C 1021.2 hPa Calm   1.6 km/h 91 % 0 mm 14 W/m2
06:45 5.6 °C 4.2 °C 1020.9 hPa Calm   1.6 km/h 91 % 0 mm 14 W/m2
06:50 5.4 °C 4.1 °C 1020.9 hPa Calm     91 % 0 mm 18 W/m2
06:55 5.3 °C 3.9 °C 1020.9 hPa Calm   1.6 km/h 91 % 0 mm 19 W/m2
07:00 5.3 °C 3.9 °C 1021.2 hPa NW 1.6 km/h 6.4 km/h 91 % 0 mm 60 W/m2
07:05 5.4 °C 4.2 °C 1021.2 hPa NW 1.6 km/h 6.4 km/h 92 % 0 mm 90 W/m2
07:10 5.6 °C 4.4 °C 1020.9 hPa Calm   6.4 km/h 92 % 0 mm 98 W/m2
07:15 5.8 °C 4.6 °C 1021.2 hPa Calm     92 % 0 mm 114 W/m2
07:20 6 °C 4.8 °C 1020.9 hPa Calm     92 % 0 mm 121 W/m2
07:25 6.2 °C 5 °C 1020.9 hPa Calm     92 % 0 mm 90 W/m2
07:30 6.4 °C 5.1 °C 1020.9 hPa Calm     91 % 0 mm 95 W/m2
07:35 6.6 °C 5.2 °C 1020.9 hPa Calm     91 % 0 mm 162 W/m2
07:40 6.9 °C 5.4 °C 1020.9 hPa WNW 1.6 km/h 9.7 km/h 90 % 0 mm 181 W/m2
07:45 7.3 °C 5.8 °C 1020.9 hPa WNW 3.2 km/h 9.7 km/h 90 % 0 mm 183 W/m2
07:50 7.8 °C 6.3 °C 1020.9 hPa WNW 3.2 km/h 14.5 km/h 90 % 0 mm 206 W/m2
07:55 8.4 °C 6.5 °C 1020.9 hPa NW 6.4 km/h 14.5 km/h 88 % 0 mm 225 W/m2
08:00 8.8 °C 6.4 °C 1020.9 hPa NW 9.7 km/h 17.7 km/h 85 % 0 mm 227 W/m2
08:05 9.2 °C 6.6 °C 1020.9 hPa NW 9.7 km/h 17.7 km/h 84 % 0 mm 221 W/m2
08:10 9.4 °C 6.7 °C 1020.9 hPa NW 8 km/h 12.9 km/h 83 % 0 mm 239 W/m2
08:15 9.7 °C 6.8 °C 1020.5 hPa NW 4.8 km/h 14.5 km/h 82 % 0 mm 174 W/m2
08:20 9.7 °C 6.4 °C 1020.5 hPa WNW 8 km/h 19.3 km/h 80 % 0 mm 127 W/m2
08:25 9.7 °C 6.6 °C 1020.5 hPa WNW 11.3 km/h 20.9 km/h 81 % 0 mm 236 W/m2
08:31 9.8 °C 6.7 °C 1020.5 hPa WNW 12.9 km/h 20.9 km/h 81 % 0 mm 309 W/m2
08:36 10 °C 6.9 °C 1020.5 hPa WNW 12.9 km/h 20.9 km/h 81 % 0 mm 315 W/m2
08:41 10.1 °C 6.8 °C 1020.5 hPa WNW 14.5 km/h 24.1 km/h 80 % 0 mm 120 W/m2
08:46 10 °C 6.7 °C 1020.5 hPa WNW 14.5 km/h 25.7 km/h 80 % 0 mm 302 W/m2
08:51 9.9 °C 6.6 °C 1020.5 hPa WNW 14.5 km/h 25.7 km/h 80 % 0 mm 308 W/m2
08:56 9.9 °C 6.6 °C 1020.2 hPa WNW 12.9 km/h 22.5 km/h 80 % 0 mm 114 W/m2
09:01 9.8 °C 6.7 °C 1020.2 hPa West 9.7 km/h 20.9 km/h 81 % 0 mm 134 W/m2
09:06 10 °C 6.9 °C 1020.2 hPa WNW 8 km/h 16.1 km/h 81 % 0 mm 413 W/m2
09:11 10.2 °C 6.9 °C 1020.2 hPa WNW 9.7 km/h 16.1 km/h 80 % 0 mm 318 W/m2
09:16 10.4 °C 7.1 °C 1019.9 hPa WNW 9.7 km/h 16.1 km/h 80 % 0 mm 427 W/m2
09:21 10.6 °C 7.1 °C 1019.9 hPa WNW 6.4 km/h 14.5 km/h 79 % 0 mm 459 W/m2
09:26 10.9 °C 7 °C 1019.9 hPa West 4.8 km/h 12.9 km/h 77 % 0 mm 459 W/m2
09:31 10.9 °C 6.7 °C 1019.9 hPa WSW 8 km/h 17.7 km/h 75 % 0 mm 418 W/m2
09:36 10.9 °C 6.7 °C 1019.9 hPa SW 12.9 km/h 22.5 km/h 75 % 0 mm 431 W/m2
09:41 10.9 °C 6.7 °C 1019.9 hPa WSW 12.9 km/h 22.5 km/h 75 % 0 mm 455 W/m2
09:46 11.2 °C 6.9 °C 1019.5 hPa West 11.3 km/h 17.7 km/h 75 % 0 mm 468 W/m2
09:51 11.4 °C 6.9 °C 1019.5 hPa West 11.3 km/h 17.7 km/h 74 % 0 mm 494 W/m2
09:56 11.5 °C 7 °C 1019.5 hPa West 9.7 km/h 17.7 km/h 74 % 0 mm 508 W/m2
10:01 11.6 °C 7.1 °C 1019.5 hPa WSW 9.7 km/h 25.7 km/h 74 % 0 mm 489 W/m2
10:06 11.6 °C 6.9 °C 1019.2 hPa West 12.9 km/h 25.7 km/h 73 % 0 mm 513 W/m2
10:11 11.7 °C 7 °C 1019.5 hPa West 14.5 km/h 25.7 km/h 73 % 0 mm 529 W/m2
10:16 12 °C 7.1 °C 1019.2 hPa WNW 12.9 km/h 20.9 km/h 72 % 0 mm 427 W/m2
10:21 12.3 °C 7.4 °C 1019.2 hPa WNW 11.3 km/h 20.9 km/h 72 % 0 mm 526 W/m2
10:26 12.6 °C 7.3 °C 1019.5 hPa WNW 11.3 km/h 24.1 km/h 70 % 0 mm 524 W/m2
10:31 12.7 °C 7.4 °C 1019.2 hPa West 12.9 km/h 24.1 km/h 70 % 0 mm 584 W/m2
10:36 12.8 °C 7.4 °C 1019.2 hPa West 12.9 km/h 22.5 km/h 70 % 0 mm 612 W/m2
10:41 12.7 °C 6.9 °C 1019.2 hPa WSW 14.5 km/h 25.7 km/h 68 % 0 mm 624 W/m2
10:46 12.6 °C 7.3 °C 1019.2 hPa WSW 17.7 km/h 25.7 km/h 70 % 0 mm 666 W/m2
10:51 12.6 °C 7.1 °C 1019.2 hPa WSW 20.9 km/h 37 km/h 69 % 0 mm 800 W/m2
10:56 12.6 °C 7.1 °C 1019.2 hPa West 22.5 km/h 37 km/h 69 % 0 mm 751 W/m2
11:01 12.8 °C 7.3 °C 1018.8 hPa West 19.3 km/h 35.4 km/h 69 % 0 mm 429 W/m2
11:06 12.9 °C 7.1 °C 1019.2 hPa West 17.7 km/h 30.6 km/h 68 % 0 mm 429 W/m2
11:11 12.8 °C 7.1 °C 1018.8 hPa WSW 19.3 km/h 35.4 km/h 68 % 0 mm 824 W/m2
11:16 12.7 °C 6.9 °C 1018.8 hPa WSW 19.3 km/h 35.4 km/h 68 % 0 mm 366 W/m2
11:21 12.6 °C 6.8 °C 1018.8 hPa WSW 17.7 km/h 32.2 km/h 68 % 0 mm 290 W/m2
11:26 12.4 °C 6.9 °C 1018.8 hPa WSW 16.1 km/h 30.6 km/h 69 % 0 mm 163 W/m2
11:31 12.4 °C 6.9 °C 1018.8 hPa WSW 14.5 km/h 29 km/h 69 % 0 mm 165 W/m2
11:36 12.2 °C 6.9 °C 1018.8 hPa West 16.1 km/h 35.4 km/h 70 % 0 mm 183 W/m2
11:41 12.1 °C 6.8 °C 1018.5 hPa West 14.5 km/h 35.4 km/h 70 % 0 mm 165 W/m2
11:46 11.9 °C 6.6 °C 1018.5 hPa West 14.5 km/h 29 km/h 70 % 0 mm 162 W/m2
11:51 11.9 °C 6.6 °C 1018.2 hPa West 16.1 km/h 33.8 km/h 70 % 0 mm 158 W/m2
11:56 11.9 °C 6.6 °C 1018.2 hPa West 16.1 km/h 33.8 km/h 70 % 0 mm 206 W/m2
12:01 12 °C 6.9 °C 1018.2 hPa West 17.7 km/h 30.6 km/h 71 % 0 mm 223 W/m2
12:06 12.1 °C 7 °C 1018.2 hPa West 17.7 km/h 30.6 km/h 71 % 0 mm 274 W/m2
12:07 12.1 °C 7 °C 1018.2 hPa West 17.7 km/h 30.6 km/h 71 % 0 mm 221 W/m2
12:12 12.1 °C 6.8 °C 1018.2 hPa West 16.1 km/h 29 km/h 70 % 0 mm 213 W/m2
12:17 12.2 °C 6.9 °C 1018.2 hPa West 19.3 km/h 41.8 km/h 70 % 0 mm 190 W/m2
12:22 12 °C 6.7 °C 1018.2 hPa West 22.5 km/h 41.8 km/h 70 % 0 mm 176 W/m2
12:27 11.9 °C 6.8 °C 1018.2 hPa West 20.9 km/h 33.8 km/h 71 % 0 mm 158 W/m2
12:32 11.9 °C 6.8 °C 1018.2 hPa West 20.9 km/h 38.6 km/h 71 % 0 mm 160 W/m2
12:37 11.9 °C 6.6 °C 1017.8 hPa West 20.9 km/h 38.6 km/h 70 % 0 mm 237 W/m2
12:42 11.9 °C 6.8 °C 1017.8 hPa West 19.3 km/h 37 km/h 71 % 0 mm 188 W/m2
12:47 11.9 °C 6.8 °C 1017.8 hPa WSW 17.7 km/h 33.8 km/h 71 % 0 mm 149 W/m2
12:52 11.8 °C 6.9 °C 1017.8 hPa West 17.7 km/h 33.8 km/h 72 % 0 mm 116 W/m2
12:57 11.8 °C 6.9 °C 1017.8 hPa WSW 20.9 km/h 38.6 km/h 72 % 0 mm 111 W/m2
13:02 11.6 °C 6.9 °C 1017.5 hPa WSW 20.9 km/h 38.6 km/h 73 % 0 mm 91 W/m2
13:07 11.6 °C 7.1 °C 1017.2 hPa West 17.7 km/h 32.2 km/h 74 % 0 mm 104 W/m2
13:12 11.6 °C 7.3 °C 1017.2 hPa WSW 17.7 km/h 32.2 km/h 75 % 0 mm 332 W/m2
13:17 11.7 °C 7.4 °C 1017.2 hPa SW 16.1 km/h 30.6 km/h 75 % 0 mm 322 W/m2
13:22 12 °C 7.5 °C 1017.2 hPa WSW 16.1 km/h 33.8 km/h 74 % 0 mm 202 W/m2
13:27 12.1 °C 7.4 °C 1017.2 hPa WSW 19.3 km/h 33.8 km/h 73 % 0 mm 162 W/m2
13:32 12.2 °C 7.5 °C 1017.2 hPa WSW 17.7 km/h 33.8 km/h 73 % 0 mm 153 W/m2
13:37 12.2 °C 7.5 °C 1016.8 hPa WSW 16.1 km/h 37 km/h 73 % 0 mm 148 W/m2
13:42 12.1 °C 7.4 °C 1016.8 hPa WSW 17.7 km/h 37 km/h 73 % 0 mm 118 W/m2
13:47 12 °C 7.5 °C 1016.8 hPa West 17.7 km/h 30.6 km/h 74 % 0 mm 146 W/m2
13:52 11.8 °C 7.5 °C 1016.8 hPa West 17.7 km/h 33.8 km/h 75 % 0 mm 223 W/m2
13:57 11.9 °C 7.6 °C 1016.8 hPa West 19.3 km/h 33.8 km/h 75 % 0 mm 751 W/m2
14:02 12.1 °C 7.6 °C 1016.8 hPa West 19.3 km/h 32.2 km/h 74 % 0 mm 626 W/m2
14:07 12.3 °C 7.8 °C 1016.5 hPa West 17.7 km/h 32.2 km/h 74 % 0 mm 552 W/m2
14:12 12.4 °C 7.7 °C 1016.5 hPa West 17.7 km/h 33.8 km/h 73 % 0 mm 545 W/m2
14:17 12.7 °C 7.8 °C 1016.5 hPa West 19.3 km/h 33.8 km/h 72 % 0 mm 548 W/m2
14:22 12.7 °C 7.8 °C 1016.5 hPa West 20.9 km/h 32.2 km/h 72 % 0 mm 527 W/m2
14:27 12.8 °C 7.7 °C 1016.5 hPa WSW 20.9 km/h 32.2 km/h 71 % 0 mm 557 W/m2
14:32 12.8 °C 7.7 °C 1016.1 hPa WSW 19.3 km/h 32.2 km/h 71 % 0 mm 185 W/m2
14:37 12.8 °C 7.4 °C 1016.1 hPa WSW 19.3 km/h 30.6 km/h 70 % 0 mm 380 W/m2
14:42 12.7 °C 7.4 °C 1016.1 hPa WSW 19.3 km/h 33.8 km/h 70 % 0 mm 220 W/m2
14:47 12.8 °C 7.7 °C 1016.1 hPa West 17.7 km/h 33.8 km/h 71 % 0 mm 137 W/m2
14:52 12.8 °C 7.3 °C 1016.1 hPa West 20.9 km/h 38.6 km/h 69 % 0 mm 192 W/m2
14:57 12.6 °C 7.3 °C 1016.1 hPa West 20.9 km/h 38.6 km/h 70 % 0 mm 192 W/m2
15:02 12.6 °C 7.3 °C 1016.1 hPa WSW 19.3 km/h 33.8 km/h 70 % 0 mm 109 W/m2
15:07 12.4 °C 7.1 °C 1016.1 hPa WSW 20.9 km/h 32.2 km/h 70 % 0 mm 123 W/m2
15:12 12.3 °C 7.2 °C 1016.1 hPa WSW 17.7 km/h 32.2 km/h 71 % 0 mm 100 W/m2
15:17 12.3 °C 7.2 °C 1016.1 hPa West 12.9 km/h 29 km/h 71 % 0 mm 102 W/m2
15:22 12.3 °C 7 °C 1015.8 hPa WSW 14.5 km/h 30.6 km/h 70 % 0 mm 104 W/m2
15:27 12.3 °C 7 °C 1015.8 hPa WSW 17.7 km/h 30.6 km/h 70 % 0 mm 97 W/m2
15:32 12.3 °C 6.8 °C 1015.8 hPa WSW 17.7 km/h 32.2 km/h 69 % 0 mm 74 W/m2
15:37 12.3 °C 6.8 °C 1015.8 hPa WSW 16.1 km/h 32.2 km/h 69 % 0 mm 51 W/m2
15:42 12.2 °C 6.9 °C 1015.8 hPa WSW 16.1 km/h 29 km/h 70 % 0 mm 54 W/m2
15:47 12.1 °C 6.8 °C 1015.8 hPa WSW 14.5 km/h 22.5 km/h 70 % 0 mm 58 W/m2
15:52 12.1 °C 6.8 °C 1015.8 hPa WSW 14.5 km/h 24.1 km/h 70 % 0 mm 56 W/m2
15:58 12.1 °C 7 °C 1015.8 hPa WSW 14.5 km/h 24.1 km/h 71 % 0 mm 46 W/m2
16:03 11.9 °C 6.8 °C 1015.8 hPa WSW 14.5 km/h 24.1 km/h 71 % 0 mm 39 W/m2
16:08 11.9 °C 6.8 °C 1015.8 hPa WSW 16.1 km/h 24.1 km/h 71 % 0 mm 51 W/m2
16:13 11.9 °C 7 °C 1015.8 hPa WSW 14.5 km/h 24.1 km/h 72 % 0 mm 76 W/m2
16:18 11.9 °C 7 °C 1015.5 hPa WSW 11.3 km/h 20.9 km/h 72 % 0 mm 47 W/m2
16:23 11.9 °C 7 °C 1015.5 hPa WSW 11.3 km/h 20.9 km/h 72 % 0 mm 76 W/m2
16:28 11.9 °C 6.8 °C 1015.1 hPa WSW 14.5 km/h 29 km/h 71 % 0 mm 223 W/m2
16:33 12.1 °C 7 °C 1015.1 hPa WSW 16.1 km/h 29 km/h 71 % 0 mm 225 W/m2
16:38 12.1 °C 6.8 °C 1015.1 hPa WSW 17.7 km/h 38.6 km/h 70 % 0 mm 62 W/m2
16:43 12.2 °C 6.9 °C 1015.1 hPa WSW 17.7 km/h 38.6 km/h 70 % 0 mm 44 W/m2
16:48 12.2 °C 6.9 °C 1015.1 hPa West 17.7 km/h 33.8 km/h 70 % 0 mm 151 W/m2
16:53 12.1 °C 6.8 °C 1015.1 hPa West 19.3 km/h 33.8 km/h 70 % 0 mm 97 W/m2
16:58 12 °C 6.7 °C 1015.1 hPa WSW 17.7 km/h 32.2 km/h 70 % 0 mm 33 W/m2
17:03 11.8 °C 6.5 °C 1015.1 hPa WSW 17.7 km/h 30.6 km/h 70 % 0 mm 28 W/m2
17:08 11.8 °C 6.7 °C 1015.1 hPa WSW 16.1 km/h 30.6 km/h 71 % 0 mm 39 W/m2
17:13 11.7 °C 6.8 °C 1015.1 hPa West 16.1 km/h 33.8 km/h 72 % 0 mm 26 W/m2
17:18 11.7 °C 6.8 °C 1015.1 hPa West 16.1 km/h 33.8 km/h 72 % 0 mm 21 W/m2
17:23 11.7 °C 6.8 °C 1015.1 hPa WSW 14.5 km/h 32.2 km/h 72 % 0 mm 25 W/m2
17:28 11.7 °C 7 °C 1015.1 hPa WSW 14.5 km/h 25.7 km/h 73 % 0 mm 23 W/m2
17:33 11.7 °C 7 °C 1015.1 hPa WSW 16.1 km/h 30.6 km/h 73 % 0 mm 19 W/m2
17:38 11.7 °C 7 °C 1015.1 hPa WSW 19.3 km/h 30.6 km/h 73 % 0 mm 19 W/m2
17:43 11.6 °C 6.9 °C 1015.1 hPa WSW 20.9 km/h 35.4 km/h 73 % 0 mm 12 W/m2
17:48 11.4 °C 6.9 °C 1015.5 hPa WSW 25.7 km/h 41.8 km/h 74 % 0 mm 11 W/m2
17:53 11.2 °C 6.9 °C 1015.5 hPa WSW 24.1 km/h 41.8 km/h 75 % 0 mm 9 W/m2
17:58 11.1 °C 7 °C 1015.5 hPa West 19.3 km/h 37 km/h 76 % 0 mm 5 W/m2
18:03 10.9 °C 7 °C 1015.5 hPa West 17.7 km/h 32.2 km/h 77 % 0 mm 0 W/m2
18:08 10.8 °C 6.9 °C 1015.5 hPa West 19.3 km/h 37 km/h 77 % 0 mm 0 W/m2
18:13 10.7 °C 6.8 °C 1015.5 hPa West 19.3 km/h 37 km/h 77 % 0 mm 0 W/m2
18:18 10.6 °C 6.9 °C 1015.5 hPa West 17.7 km/h 33.8 km/h 78 % 0 mm 0 W/m2
18:23 10.5 °C 7 °C 1015.8 hPa West 19.3 km/h 35.4 km/h 79 % 0 mm 0 W/m2
18:28 10.4 °C 7.1 °C 1015.8 hPa West 24.1 km/h 41.8 km/h 80 % 0 mm 0 W/m2
18:33 10.3 °C 7.2 °C 1015.5 hPa West 22.5 km/h 41.8 km/h 81 % 0 mm 0 W/m2
18:38 10.2 °C 7.1 °C 1015.8 hPa West 19.3 km/h 35.4 km/h 81 % 0 mm 0 W/m2
18:43 10 °C 7.2 °C 1016.1 hPa West 22.5 km/h 45.1 km/h 83 % 0 mm 0 W/m2
18:48 9.1 °C 6.2 °C 1016.1 hPa WNW 24.1 km/h 46.7 km/h 82 % 0 mm 0 W/m2
18:53 8.4 °C 5.8 °C 1016.5 hPa WNW 20.9 km/h 46.7 km/h 84 % 0 mm 0 W/m2
18:58 7.9 °C 5.6 °C 1016.5 hPa WNW 22.5 km/h 41.8 km/h 85 % 0 mm 0 W/m2
19:03 7.6 °C 5.2 °C 1016.5 hPa WNW 22.5 km/h 41.8 km/h 85 % 0 mm 0 W/m2
19:08 7.4 °C 5.2 °C 1016.5 hPa WNW 19.3 km/h 33.8 km/h 86 % 0 mm 0 W/m2
19:14 7.3 °C 5.1 °C 1016.5 hPa WNW 17.7 km/h 30.6 km/h 86 % 0 mm 0 W/m2
19:19 7.3 °C 5.1 °C 1016.5 hPa WNW 16.1 km/h 30.6 km/h 86 % 0 mm 0 W/m2
19:24 7.2 °C 5 °C 1016.5 hPa WNW 17.7 km/h 30.6 km/h 86 % 0 mm 0 W/m2
19:29 7.2 °C 4.8 °C 1016.5 hPa WNW 19.3 km/h 35.4 km/h 85 % 0 mm 0 W/m2
19:34 7.1 °C 4.7 °C 1016.5 hPa WNW 17.7 km/h 35.4 km/h 85 % 0 mm 0 W/m2
19:39 7 °C 4.5 °C 1016.5 hPa WNW 16.1 km/h 30.6 km/h 84 % 0 mm 0 W/m2
19:44 6.9 °C 4.4 °C 1016.5 hPa WNW 14.5 km/h 25.7 km/h 84 % 0 mm 0 W/m2
19:49 6.8 °C 4.3 °C 1016.5 hPa WNW 12.9 km/h 22.5 km/h 84 % 0 mm 0 W/m2
19:54 6.8 °C 4.3 °C 1016.8 hPa WNW 12.9 km/h 22.5 km/h 84 % 0 mm 0 W/m2
19:59 6.8 °C 4.3 °C 1016.8 hPa WNW 12.9 km/h 24.1 km/h 84 % 0 mm 0 W/m2
20:04 6.8 °C 4.1 °C 1016.8 hPa NW 12.9 km/h 24.1 km/h 83 % 0 mm 0 W/m2
20:09 6.8 °C 4.3 °C 1016.8 hPa NW 11.3 km/h 24.1 km/h 84 % 0 mm 0 W/m2
20:14 6.8 °C 4.3 °C 1016.8 hPa NW 9.7 km/h 19.3 km/h 84 % 0 mm 0 W/m2
20:19 6.8 °C 4.3 °C 1017.2 hPa NW 8 km/h 17.7 km/h 84 % 0 mm 0 W/m2
20:24 6.8 °C 4.3 °C 1017.2 hPa NW 8 km/h 17.7 km/h 84 % 0 mm 0 W/m2
20:29 6.8 °C 4.3 °C 1017.2 hPa NW 8 km/h 12.9 km/h 84 % 0 mm 0 W/m2
20:34 6.8 °C 4.4 °C 1017.2 hPa NW 8 km/h 14.5 km/h 85 % 0 mm 0 W/m2
20:39 6.9 °C 4.6 °C 1017.2 hPa NW 6.4 km/h 14.5 km/h 85 % 0 mm 0 W/m2
20:44 6.8 °C 4.4 °C 1017.2 hPa WNW 6.4 km/h 12.9 km/h 85 % 0 mm 0 W/m2
20:49 6.8 °C 4.4 °C 1017.2 hPa WNW 8 km/h 12.9 km/h 85 % 0 mm 0 W/m2
20:54 6.8 °C 4.4 °C 1017.2 hPa WNW 9.7 km/h 16.1 km/h 85 % 0 mm 0 W/m2
20:59 6.8 °C 4.4 °C 1017.2 hPa WNW 9.7 km/h 16.1 km/h 85 % 0 mm 0 W/m2
21:04 6.9 °C 4.6 °C 1017.2 hPa WNW 11.3 km/h 19.3 km/h 85 % 0 mm 0 W/m2
21:09 6.9 °C 4.7 °C 1017.2 hPa WNW 14.5 km/h 25.7 km/h 86 % 0 mm 0 W/m2
21:14 6.8 °C 4.6 °C 1017.5 hPa WNW 14.5 km/h 25.7 km/h 86 % 0 mm 0 W/m2
21:19 6.7 °C 4.3 °C 1017.5 hPa WNW 14.5 km/h 29 km/h 85 % 0 mm 0 W/m2
21:24 6.6 °C 4.3 °C 1017.5 hPa WNW 12.9 km/h 29 km/h 85 % 0 mm 0 W/m2
21:29 6.5 °C 4 °C 1017.5 hPa WNW 12.9 km/h 24.1 km/h 84 % 0 mm 0 W/m2
21:34 6.4 °C 4.1 °C 1017.5 hPa WNW 11.3 km/h 22.5 km/h 85 % 0 mm 0 W/m2
21:39 6.3 °C 3.9 °C 1017.5 hPa WNW 8 km/h 17.7 km/h 85 % 0 mm 0 W/m2
21:44 6.3 °C 3.9 °C 1017.8 hPa WNW 9.7 km/h 17.7 km/h 85 % 0 mm 0 W/m2
21:49 6.3 °C 3.9 °C 1017.8 hPa WNW 9.7 km/h 17.7 km/h 85 % 0 mm 0 W/m2
21:54 6.2 °C 4.1 °C 1017.8 hPa WNW 8 km/h 16.1 km/h 86 % 0 mm 0 W/m2
21:59 6.1 °C 3.8 °C 1017.8 hPa WNW 6.4 km/h 17.7 km/h 85 % 0 mm 0 W/m2
22:04 5.9 °C 3.6 °C 1017.8 hPa WNW 8 km/h 17.7 km/h 85 % 0 mm 0 W/m2
22:09 5.8 °C 3.4 °C 1017.5 hPa WNW 8 km/h 14.5 km/h 85 % 0 mm 0 W/m2
22:14 5.7 °C 3.6 °C 1017.8 hPa WNW 8 km/h 16.1 km/h 86 % 0 mm 0 W/m2
22:19 5.6 °C 3.4 °C 1017.5 hPa WNW 8 km/h 17.7 km/h 86 % 0 mm 0 W/m2
22:25 5.5 °C 3.3 °C 1017.5 hPa WNW 8 km/h 17.7 km/h 86 % 0 mm 0 W/m2
22:30 5.4 °C 3.2 °C 1017.8 hPa WNW 6.4 km/h 14.5 km/h 86 % 0 mm 0 W/m2
22:35 5.3 °C 3.2 °C 1017.8 hPa WNW 4.8 km/h 9.7 km/h 86 % 0 mm 0 W/m2
22:40 5.2 °C 3.1 °C 1017.5 hPa WNW 1.6 km/h 8 km/h 86 % 0 mm 0 W/m2
22:45 5.1 °C 2.9 °C 1017.5 hPa Calm   6.4 km/h 86 % 0 mm 0 W/m2
22:50 4.9 °C 2.9 °C 1017.8 hPa Calm   6.4 km/h 87 % 0 mm 0 W/m2
22:55 4.8 °C 2.8 °C 1017.8 hPa Calm   1.6 km/h 87 % 0 mm 0 W/m2
23:00 4.6 °C 2.6 °C 1017.8 hPa Calm   1.6 km/h 87 % 0 mm 0 W/m2
23:05 4.4 °C 2.6 °C 1017.8 hPa Calm     88 % 0 mm 0 W/m2
23:10 4.3 °C 2.5 °C 1017.8 hPa WNW 1.6 km/h 8 km/h 88 % 0 mm 0 W/m2
23:15 4.4 °C 2.7 °C 1017.8 hPa West 3.2 km/h 9.7 km/h 89 % 0 mm 0 W/m2
23:20 4.4 °C 2.7 °C 1017.8 hPa West 4.8 km/h 19.3 km/h 89 % 0 mm 0 W/m2
23:25 4.4 °C 2.7 °C 1017.8 hPa West 9.7 km/h 25.7 km/h 89 % 0 mm 0 W/m2
23:30 4.6 °C 2.6 °C 1017.8 hPa West 12.9 km/h 25.7 km/h 87 % 0 mm 0 W/m2
23:35 4.8 °C 2.7 °C 1017.8 hPa West 12.9 km/h 25.7 km/h 86 % 0 mm 0 W/m2
23:40 4.8 °C 2.5 °C 1017.8 hPa West 14.5 km/h 25.7 km/h 85 % 0 mm 0 W/m2
23:45 4.8 °C 2.3 °C 1017.8 hPa West 12.9 km/h 22.5 km/h 84 % 0 mm 0 W/m2
23:50 4.8 °C 2.2 °C 1017.8 hPa West 12.9 km/h 24.1 km/h 83 % 0 mm 0 W/m2
23:55 4.8 °C 2 °C 1017.8 hPa West 12.9 km/h 24.1 km/h 82 % 0 mm 0 W/m2
Delerius-Weather
Compliments of Weather Underground - 2.25 mb

Data updates at regular intervals.